Terminal Aerodrome Forecast
Issued by NWS Lake Charles, LA

Home | Current Version | Previous Version | Text Only | Print | Product List | Glossary On
Versions: 1 2 3 4 5 6 7 8 9 10 11 12 13 14 15 16 17
000
FTUS44 KLCH 042320
TAFBPT
TAF
KBPT 042320Z 0500/0524 15004KT P6SM SCT040
     FM050100 VRB03KT P6SM SKC
      TEMPO 0509/0513 3SM BR
     FM051400 18008KT P6SM VCSH SCT050 PROB30 0518/0524 P6SM -TSRA
      BKN025CB=

USA.gov is the U.S. government's official web portal to all federal, state and local government web resources and services.